sensor_id;sensor_type;location;lat;lon;timestamp;temperature;humidity
5364;DHT22;2705;41.410;2.160;2022-10-16T00:00:41;21.80;99.90
5364;DHT22;2705;41.410;2.160;2022-10-16T00:03:11;21.70;99.90
5364;DHT22;2705;41.410;2.160;2022-10-16T00:05:42;21.70;99.90
5364;DHT22;2705;41.410;2.160;2022-10-16T00:08:12;21.70;99.90
5364;DHT22;2705;41.410;2.160;2022-10-16T00:10:41;21.70;99.90
5364;DHT22;2705;41.410;2.160;2022-10-16T00:13:10;21.70;99.90
5364;DHT22;2705;41.410;2.160;2022-10-16T00:15:42;21.70;99.90
5364;DHT22;2705;41.410;2.160;2022-10-16T00:18:11;21.70;99.90
5364;DHT22;2705;41.410;2.160;2022-10-16T00:20:41;21.70;99.90
5364;DHT22;2705;41.410;2.160;2022-10-16T00:23:30;21.70;99.90
5364;DHT22;2705;41.410;2.160;2022-10-16T00:26:01;21.70;99.90
5364;DHT22;2705;41.410;2.160;2022-10-16T00:28:31;21.70;99.90
5364;DHT22;2705;41.410;2.160;2022-10-16T00:31:05;21.50;99.90
5364;DHT22;2705;41.410;2.160;2022-10-16T00:33:35;21.60;99.90
5364;DHT22;2705;41.410;2.160;2022-10-16T00:36:07;21.60;99.90
5364;DHT22;2705;41.410;2.160;2022-10-16T00:38:38;21.60;99.90
5364;DHT22;2705;41.410;2.160;2022-10-16T00:41:12;21.50;99.90
5364;DHT22;2705;41.410;2.160;2022-10-16T00:43:43;21.50;99.90
5364;DHT22;2705;41.410;2.160;2022-10-16T00:46:18;21.50;99.90
5364;DHT22;2705;41.410;2.160;2022-10-16T00:48:52;21.60;99.90
5364;DHT22;2705;41.410;2.160;2022-10-16T00:51:25;21.60;99.90
5364;DHT22;2705;41.410;2.160;2022-10-16T00:53:56;21.60;99.90
5364;DHT22;2705;41.410;2.160;2022-10-16T00:56:26;21.60;99.90
5364;DHT22;2705;41.410;2.160;2022-10-16T00:58:55;21.60;99.90
5364;DHT22;2705;41.410;2.160;2022-10-16T01:01:26;21.50;99.90
5364;DHT22;2705;41.410;2.160;2022-10-16T01:03:58;21.50;99.90
5364;DHT22;2705;41.410;2.160;2022-10-16T01:06:32;21.50;99.90
5364;DHT22;2705;41.410;2.160;2022-10-16T01:09:12;21.40;99.90
5364;DHT22;2705;41.410;2.160;2022-10-16T01:11:49;21.50;99.90
5364;DHT22;2705;41.410;2.160;2022-10-16T01:14:25;21.50;99.90
5364;DHT22;2705;41.410;2.160;2022-10-16T01:17:01;21.40;99.90
5364;DHT22;2705;41.410;2.160;2022-10-16T01:19:58;21.40;99.90
5364;DHT22;2705;41.410;2.160;2022-10-16T01:22:37;21.40;99.90
5364;DHT22;2705;41.410;2.160;2022-10-16T01:25:14;21.40;99.90
5364;DHT22;2705;41.410;2.160;2022-10-16T01:27:48;21.40;99.90
5364;DHT22;2705;41.410;2.160;2022-10-16T01:30:21;21.40;99.90
5364;DHT22;2705;41.410;2.160;2022-10-16T01:32:56;21.40;99.90
5364;DHT22;2705;41.410;2.160;2022-10-16T01:35:28;21.40;99.90
5364;DHT22;2705;41.410;2.160;2022-10-16T01:38:01;21.40;99.90
5364;DHT22;2705;41.410;2.160;2022-10-16T01:40:35;21.40;99.90
5364;DHT22;2705;41.410;2.160;2022-10-16T01:43:10;21.40;99.90
5364;DHT22;2705;41.410;2.160;2022-10-16T01:45:43;21.40;99.90
5364;DHT22;2705;41.410;2.160;2022-10-16T01:48:17;21.40;99.90
5364;DHT22;2705;41.410;2.160;2022-10-16T01:50:56;21.30;99.90
5364;DHT22;2705;41.410;2.160;2022-10-16T01:53:27;21.30;99.90
5364;DHT22;2705;41.410;2.160;2022-10-16T01:55:58;21.30;99.90
5364;DHT22;2705;41.410;2.160;2022-10-16T01:58:30;21.30;99.90
5364;DHT22;2705;41.410;2.160;2022-10-16T02:01:03;21.30;99.90
5364;DHT22;2705;41.410;2.160;2022-10-16T02:03:34;21.30;99.90
5364;DHT22;2705;41.410;2.160;2022-10-16T02:06:08;21.30;99.90
5364;DHT22;2705;41.410;2.160;2022-10-16T02:08:38;21.30;99.90
5364;DHT22;2705;41.410;2.160;2022-10-16T02:11:11;21.20;99.90
5364;DHT22;2705;41.410;2.160;2022-10-16T02:13:46;21.30;99.90
5364;DHT22;2705;41.410;2.160;2022-10-16T02:16:17;21.30;99.90
5364;DHT22;2705;41.410;2.160;2022-10-16T02:18:47;21.40;99.90
5364;DHT22;2705;41.410;2.160;2022-10-16T02:21:21;21.40;99.90
5364;DHT22;2705;41.410;2.160;2022-10-16T02:23:55;21.40;99.90
5364;DHT22;2705;41.410;2.160;2022-10-16T02:26:30;21.20;99.90
5364;DHT22;2705;41.410;2.160;2022-10-16T02:29:06;21.20;99.90
5364;DHT22;2705;41.410;2.160;2022-10-16T02:31:43;21.10;99.90
5364;DHT22;2705;41.410;2.160;2022-10-16T02:34:16;21.10;99.90
5364;DHT22;2705;41.410;2.160;2022-10-16T02:36:47;21.10;99.90
5364;DHT22;2705;41.410;2.160;2022-10-16T02:39:20;21.30;99.90
5364;DHT22;2705;41.410;2.160;2022-10-16T02:41:49;21.50;99.90
5364;DHT22;2705;41.410;2.160;2022-10-16T02:44:20;21.20;99.90
5364;DHT22;2705;41.410;2.160;2022-10-16T02:46:49;21.10;99.90
5364;DHT22;2705;41.410;2.160;2022-10-16T02:49:19;21.30;99.90
5364;DHT22;2705;41.410;2.160;2022-10-16T02:51:48;21.40;99.90
5364;DHT22;2705;41.410;2.160;2022-10-16T02:54:18;21.50;99.90
5364;DHT22;2705;41.410;2.160;2022-10-16T02:56:47;21.40;99.90
5364;DHT22;2705;41.410;2.160;2022-10-16T02:59:16;21.30;99.90
5364;DHT22;2705;41.410;2.160;2022-10-16T03:01:47;21.30;99.90
5364;DHT22;2705;41.410;2.160;2022-10-16T03:04:17;21.40;99.90
5364;DHT22;2705;41.410;2.160;2022-10-16T03:06:46;21.30;99.90
5364;DHT22;2705;41.410;2.160;2022-10-16T03:09:17;21.40;99.90
5364;DHT22;2705;41.410;2.160;2022-10-16T03:11:46;21.40;99.90
5364;DHT22;2705;41.410;2.160;2022-10-16T03:14:16;21.40;99.90
5364;DHT22;2705;41.410;2.160;2022-10-16T03:16:47;21.20;99.90
5364;DHT22;2705;41.410;2.160;2022-10-16T03:19:16;21.30;99.90
5364;DHT22;2705;41.410;2.160;2022-10-16T03:21:46;21.20;99.90
5364;DHT22;2705;41.410;2.160;2022-10-16T03:24:15;21.20;99.90
5364;DHT22;2705;41.410;2.160;2022-10-16T03:26:44;21.00;99.90
5364;DHT22;2705;41.410;2.160;2022-10-16T03:29:14;21.10;99.90
5364;DHT22;2705;41.410;2.160;2022-10-16T03:31:44;21.10;99.90
5364;DHT22;2705;41.410;2.160;2022-10-16T03:34:14;21.00;99.90
5364;DHT22;2705;41.410;2.160;2022-10-16T03:36:43;21.10;99.90
5364;DHT22;2705;41.410;2.160;2022-10-16T03:39:13;21.00;99.90
5364;DHT22;2705;41.410;2.160;2022-10-16T03:41:42;21.10;99.90
5364;DHT22;2705;41.410;2.160;2022-10-16T03:44:15;21.10;99.90
5364;DHT22;2705;41.410;2.160;2022-10-16T03:46:45;21.00;99.90
5364;DHT22;2705;41.410;2.160;2022-10-16T03:49:16;21.00;99.90
5364;DHT22;2705;41.410;2.160;2022-10-16T03:51:45;21.00;99.90
5364;DHT22;2705;41.410;2.160;2022-10-16T03:54:15;21.00;99.90
5364;DHT22;2705;41.410;2.160;2022-10-16T03:56:44;21.10;99.90
5364;DHT22;2705;41.410;2.160;2022-10-16T03:59:13;21.00;99.90
5364;DHT22;2705;41.410;2.160;2022-10-16T04:01:43;21.00;99.90
5364;DHT22;2705;41.410;2.160;2022-10-16T04:04:12;21.00;99.90
5364;DHT22;2705;41.410;2.160;2022-10-16T04:06:44;21.00;99.90
5364;DHT22;2705;41.410;2.160;2022-10-16T04:09:13;21.00;99.90
5364;DHT22;2705;41.410;2.160;2022-10-16T04:11:45;20.90;99.90
5364;DHT22;2705;41.410;2.160;2022-10-16T04:14:15;20.90;99.90
5364;DHT22;2705;41.410;2.160;2022-10-16T04:16:44;20.90;99.90
5364;DHT22;2705;41.410;2.160;2022-10-16T04:19:15;20.90;99.90
5364;DHT22;2705;41.410;2.160;2022-10-16T04:21:47;20.90;99.90
5364;DHT22;2705;41.410;2.160;2022-10-16T04:24:16;20.80;99.90
5364;DHT22;2705;41.410;2.160;2022-10-16T04:26:45;21.00;99.90
5364;DHT22;2705;41.410;2.160;2022-10-16T04:29:15;21.00;99.90
5364;DHT22;2705;41.410;2.160;2022-10-16T04:31:44;21.00;99.90
5364;DHT22;2705;41.410;2.160;2022-10-16T04:34:14;21.00;99.90
5364;DHT22;2705;41.410;2.160;2022-10-16T04:36:43;21.00;99.90
5364;DHT22;2705;41.410;2.160;2022-10-16T04:39:14;21.00;99.90
5364;DHT22;2705;41.410;2.160;2022-10-16T04:41:43;21.00;99.90
5364;DHT22;2705;41.410;2.160;2022-10-16T04:44:13;21.00;99.90
5364;DHT22;2705;41.410;2.160;2022-10-16T04:46:42;21.00;99.90
5364;DHT22;2705;41.410;2.160;2022-10-16T04:49:11;20.90;99.90
5364;DHT22;2705;41.410;2.160;2022-10-16T04:51:41;20.90;99.90
5364;DHT22;2705;41.410;2.160;2022-10-16T04:54:11;20.90;99.90
5364;DHT22;2705;41.410;2.160;2022-10-16T04:56:42;20.90;99.90
5364;DHT22;2705;41.410;2.160;2022-10-16T04:59:15;20.90;99.90
5364;DHT22;2705;41.410;2.160;2022-10-16T05:01:44;20.90;99.90
5364;DHT22;2705;41.410;2.160;2022-10-16T05:04:14;20.90;99.90
5364;DHT22;2705;41.410;2.160;2022-10-16T05:06:43;20.80;99.90
5364;DHT22;2705;41.410;2.160;2022-10-16T05:09:13;20.70;99.90
5364;DHT22;2705;41.410;2.160;2022-10-16T05:11:44;20.80;99.90
5364;DHT22;2705;41.410;2.160;2022-10-16T05:14:15;20.80;99.90
5364;DHT22;2705;41.410;2.160;2022-10-16T05:16:45;20.80;99.90
5364;DHT22;2705;41.410;2.160;2022-10-16T05:19:15;20.80;99.90
5364;DHT22;2705;41.410;2.160;2022-10-16T05:21:54;20.90;99.90
5364;DHT22;2705;41.410;2.160;2022-10-16T05:24:24;20.80;99.90
5364;DHT22;2705;41.410;2.160;2022-10-16T05:26:55;20.80;99.90
5364;DHT22;2705;41.410;2.160;2022-10-16T05:29:25;20.80;99.90
5364;DHT22;2705;41.410;2.160;2022-10-16T05:31:54;20.80;99.90
5364;DHT22;2705;41.410;2.160;2022-10-16T05:34:24;20.80;99.90
5364;DHT22;2705;41.410;2.160;2022-10-16T05:36:53;20.80;99.90
5364;DHT22;2705;41.410;2.160;2022-10-16T05:39:22;20.70;99.90
5364;DHT22;2705;41.410;2.160;2022-10-16T05:41:52;20.70;99.90
5364;DHT22;2705;41.410;2.160;2022-10-16T05:44:23;20.60;99.90
5364;DHT22;2705;41.410;2.160;2022-10-16T05:46:52;20.60;99.90
5364;DHT22;2705;41.410;2.160;2022-10-16T05:49:22;20.70;99.90
5364;DHT22;2705;41.410;2.160;2022-10-16T05:51:52;20.70;99.90
5364;DHT22;2705;41.410;2.160;2022-10-16T05:54:21;20.70;99.90
5364;DHT22;2705;41.410;2.160;2022-10-16T05:56:51;20.70;99.90
5364;DHT22;2705;41.410;2.160;2022-10-16T05:59:22;20.80;99.90
5364;DHT22;2705;41.410;2.160;2022-10-16T06:01:52;20.80;99.90
5364;DHT22;2705;41.410;2.160;2022-10-16T06:04:21;20.80;99.90
5364;DHT22;2705;41.410;2.160;2022-10-16T06:06:50;20.80;99.90
5364;DHT22;2705;41.410;2.160;2022-10-16T06:09:20;20.70;99.90
5364;DHT22;2705;41.410;2.160;2022-10-16T06:11:49;20.80;99.90
5364;DHT22;2705;41.410;2.160;2022-10-16T06:14:19;20.80;99.90
5364;DHT22;2705;41.410;2.160;2022-10-16T06:16:52;20.80;99.90
5364;DHT22;2705;41.410;2.160;2022-10-16T06:19:22;20.80;99.90
5364;DHT22;2705;41.410;2.160;2022-10-16T06:21:51;20.80;99.90
5364;DHT22;2705;41.410;2.160;2022-10-16T06:24:21;20.80;99.90
5364;DHT22;2705;41.410;2.160;2022-10-16T06:26:50;20.80;99.90
5364;DHT22;2705;41.410;2.160;2022-10-16T06:29:19;20.80;99.90
5364;DHT22;2705;41.410;2.160;2022-10-16T06:31:51;20.80;99.90
5364;DHT22;2705;41.410;2.160;2022-10-16T06:34:21;20.90;99.90
5364;DHT22;2705;41.410;2.160;2022-10-16T06:36:50;20.80;99.90
5364;DHT22;2705;41.410;2.160;2022-10-16T06:39:20;20.80;99.90
5364;DHT22;2705;41.410;2.160;2022-10-16T06:41:49;20.90;99.90
5364;DHT22;2705;41.410;2.160;2022-10-16T06:44:20;21.00;99.90
5364;DHT22;2705;41.410;2.160;2022-10-16T06:46:51;21.10;99.90
5364;DHT22;2705;41.410;2.160;2022-10-16T06:49:21;21.30;99.90
5364;DHT22;2705;41.410;2.160;2022-10-16T06:51:51;21.40;99.90
5364;DHT22;2705;41.410;2.160;2022-10-16T06:54:20;21.20;99.90
5364;DHT22;2705;41.410;2.160;2022-10-16T06:56:51;21.20;99.90
5364;DHT22;2705;41.410;2.160;2022-10-16T06:59:21;21.40;99.90
5364;DHT22;2705;41.410;2.160;2022-10-16T07:01:52;21.40;99.90
5364;DHT22;2705;41.410;2.160;2022-10-16T07:04:22;21.50;99.90
5364;DHT22;2705;41.410;2.160;2022-10-16T07:06:52;21.60;99.90
5364;DHT22;2705;41.410;2.160;2022-10-16T07:09:21;21.50;99.90
5364;DHT22;2705;41.410;2.160;2022-10-16T07:11:50;21.60;99.90
5364;DHT22;2705;41.410;2.160;2022-10-16T07:14:20;21.70;99.90
5364;DHT22;2705;41.410;2.160;2022-10-16T07:16:52;21.90;99.90
5364;DHT22;2705;41.410;2.160;2022-10-16T07:19:24;22.00;99.90
5364;DHT22;2705;41.410;2.160;2022-10-16T07:21:58;21.90;99.90
5364;DHT22;2705;41.410;2.160;2022-10-16T07:24:28;21.90;99.90
5364;DHT22;2705;41.410;2.160;2022-10-16T07:26:57;22.00;99.90
5364;DHT22;2705;41.410;2.160;2022-10-16T07:29:26;22.10;99.90
5364;DHT22;2705;41.410;2.160;2022-10-16T07:31:57;22.10;99.90
5364;DHT22;2705;41.410;2.160;2022-10-16T07:34:26;22.30;99.90
5364;DHT22;2705;41.410;2.160;2022-10-16T07:36:56;22.30;99.90
5364;DHT22;2705;41.410;2.160;2022-10-16T07:39:25;22.20;99.90
5364;DHT22;2705;41.410;2.160;2022-10-16T07:41:55;22.10;99.90
5364;DHT22;2705;41.410;2.160;2022-10-16T07:44:24;22.20;99.90
5364;DHT22;2705;41.410;2.160;2022-10-16T07:46:55;22.30;99.90
5364;DHT22;2705;41.410;2.160;2022-10-16T07:49:25;22.30;99.90
5364;DHT22;2705;41.410;2.160;2022-10-16T07:51:55;22.50;99.90
5364;DHT22;2705;41.410;2.160;2022-10-16T07:54:24;22.60;99.90
5364;DHT22;2705;41.410;2.160;2022-10-16T07:56:53;22.50;99.90
5364;DHT22;2705;41.410;2.160;2022-10-16T07:59:23;22.50;99.90
5364;DHT22;2705;41.410;2.160;2022-10-16T08:01:52;22.60;99.90
5364;DHT22;2705;41.410;2.160;2022-10-16T08:04:23;22.60;99.90
5364;DHT22;2705;41.410;2.160;2022-10-16T08:06:52;22.70;99.90
5364;DHT22;2705;41.410;2.160;2022-10-16T08:09:22;22.60;99.90
5364;DHT22;2705;41.410;2.160;2022-10-16T08:11:52;22.60;99.90
5364;DHT22;2705;41.410;2.160;2022-10-16T08:14:27;22.50;99.90
5364;DHT22;2705;41.410;2.160;2022-10-16T08:16:58;22.70;99.90
5364;DHT22;2705;41.410;2.160;2022-10-16T08:19:33;22.80;99.90
5364;DHT22;2705;41.410;2.160;2022-10-16T08:22:03;22.90;99.90
5364;DHT22;2705;41.410;2.160;2022-10-16T08:24:32;22.90;99.90
5364;DHT22;2705;41.410;2.160;2022-10-16T08:27:02;23.00;99.90
5364;DHT22;2705;41.410;2.160;2022-10-16T08:29:32;22.90;99.90
5364;DHT22;2705;41.410;2.160;2022-10-16T08:32:03;23.00;99.90
5364;DHT22;2705;41.410;2.160;2022-10-16T08:34:34;23.20;99.90
5364;DHT22;2705;41.410;2.160;2022-10-16T08:37:04;23.40;99.90
5364;DHT22;2705;41.410;2.160;2022-10-16T08:39:35;23.30;99.90
5364;DHT22;2705;41.410;2.160;2022-10-16T08:42:19;23.40;99.90
5364;DHT22;2705;41.410;2.160;2022-10-16T08:45:15;23.40;99.90
5364;DHT22;2705;41.410;2.160;2022-10-16T08:47:51;23.40;99.90
5364;DHT22;2705;41.410;2.160;2022-10-16T08:50:27;23.60;99.90
5364;DHT22;2705;41.410;2.160;2022-10-16T08:52:57;23.60;99.90
5364;DHT22;2705;41.410;2.160;2022-10-16T08:55:36;23.70;99.90
5364;DHT22;2705;41.410;2.160;2022-10-16T08:58:12;23.50;99.90
5364;DHT22;2705;41.410;2.160;2022-10-16T09:00:43;23.50;99.90
5364;DHT22;2705;41.410;2.160;2022-10-16T09:03:22;23.60;99.90
5364;DHT22;2705;41.410;2.160;2022-10-16T09:06:03;23.70;99.90
5364;DHT22;2705;41.410;2.160;2022-10-16T09:08:43;23.90;99.90
5364;DHT22;2705;41.410;2.160;2022-10-16T09:11:23;24.10;99.90
5364;DHT22;2705;41.410;2.160;2022-10-16T09:13:59;24.00;99.90
5364;DHT22;2705;41.410;2.160;2022-10-16T09:16:35;24.20;99.90
5364;DHT22;2705;41.410;2.160;2022-10-16T09:19:13;23.80;99.90
5364;DHT22;2705;41.410;2.160;2022-10-16T09:21:48;24.00;99.90
5364;DHT22;2705;41.410;2.160;2022-10-16T09:24:19;24.20;99.90
5364;DHT22;2705;41.410;2.160;2022-10-16T09:26:54;23.90;99.90
5364;DHT22;2705;41.410;2.160;2022-10-16T09:29:24;23.80;99.90
5364;DHT22;2705;41.410;2.160;2022-10-16T09:31:55;23.70;99.90
5364;DHT22;2705;41.410;2.160;2022-10-16T09:34:31;23.90;99.90
5364;DHT22;2705;41.410;2.160;2022-10-16T09:37:05;24.10;99.90
5364;DHT22;2705;41.410;2.160;2022-10-16T09:39:44;24.30;99.90
5364;DHT22;2705;41.410;2.160;2022-10-16T09:42:17;24.30;99.90
5364;DHT22;2705;41.410;2.160;2022-10-16T09:44:48;24.30;99.90
5364;DHT22;2705;41.410;2.160;2022-10-16T09:47:21;24.40;99.90
5364;DHT22;2705;41.410;2.160;2022-10-16T09:49:54;24.30;99.90
5364;DHT22;2705;41.410;2.160;2022-10-16T09:52:27;24.40;99.90
5364;DHT22;2705;41.410;2.160;2022-10-16T09:54:58;24.40;99.90
5364;DHT22;2705;41.410;2.160;2022-10-16T09:57:28;24.60;99.90
5364;DHT22;2705;41.410;2.160;2022-10-16T09:59:59;24.60;99.90
5364;DHT22;2705;41.410;2.160;2022-10-16T10:02:33;24.60;99.90
5364;DHT22;2705;41.410;2.160;2022-10-16T10:05:05;24.50;99.90
5364;DHT22;2705;41.410;2.160;2022-10-16T10:07:54;24.60;99.90
5364;DHT22;2705;41.410;2.160;2022-10-16T10:10:26;24.60;99.90
5364;DHT22;2705;41.410;2.160;2022-10-16T10:12:56;24.50;99.90
5364;DHT22;2705;41.410;2.160;2022-10-16T10:15:29;24.60;99.90
5364;DHT22;2705;41.410;2.160;2022-10-16T10:18:02;24.90;99.90
5364;DHT22;2705;41.410;2.160;2022-10-16T10:20:36;25.20;99.90
5364;DHT22;2705;41.410;2.160;2022-10-16T10:23:21;25.10;99.90
5364;DHT22;2705;41.410;2.160;2022-10-16T10:25:56;24.90;99.90
5364;DHT22;2705;41.410;2.160;2022-10-16T10:28:46;24.60;99.90
5364;DHT22;2705;41.410;2.160;2022-10-16T10:31:21;24.60;99.90
5364;DHT22;2705;41.410;2.160;2022-10-16T10:33:57;24.80;99.90
5364;DHT22;2705;41.410;2.160;2022-10-16T10:36:41;24.90;99.90
5364;DHT22;2705;41.410;2.160;2022-10-16T10:39:16;25.10;99.90
5364;DHT22;2705;41.410;2.160;2022-10-16T10:42:00;25.10;99.90
5364;DHT22;2705;41.410;2.160;2022-10-16T10:47:47;25.40;99.90
5364;DHT22;2705;41.410;2.160;2022-10-16T10:50:24;25.50;99.90
5364;DHT22;2705;41.410;2.160;2022-10-16T10:53:02;25.40;99.90
5364;DHT22;2705;41.410;2.160;2022-10-16T10:55:42;25.30;99.90
5364;DHT22;2705;41.410;2.160;2022-10-16T10:58:47;25.00;99.90
5364;DHT22;2705;41.410;2.160;2022-10-16T11:01:25;25.10;99.90
5364;DHT22;2705;41.410;2.160;2022-10-16T11:04:19;25.20;99.90
5364;DHT22;2705;41.410;2.160;2022-10-16T11:06:56;25.30;99.90
5364;DHT22;2705;41.410;2.160;2022-10-16T11:09:31;25.40;99.90
5364;DHT22;2705;41.410;2.160;2022-10-16T11:12:07;25.40;99.90
5364;DHT22;2705;41.410;2.160;2022-10-16T11:14:42;25.40;99.90
5364;DHT22;2705;41.410;2.160;2022-10-16T11:17:16;25.50;99.90
5364;DHT22;2705;41.410;2.160;2022-10-16T11:19:51;25.60;99.90
5364;DHT22;2705;41.410;2.160;2022-10-16T11:22:27;25.60;99.90
5364;DHT22;2705;41.410;2.160;2022-10-16T11:25:04;25.70;99.90
5364;DHT22;2705;41.410;2.160;2022-10-16T11:27:41;25.80;99.90
5364;DHT22;2705;41.410;2.160;2022-10-16T11:30:18;25.70;99.90
5364;DHT22;2705;41.410;2.160;2022-10-16T11:32:56;25.70;99.90
5364;DHT22;2705;41.410;2.160;2022-10-16T11:35:39;25.70;99.90
5364;DHT22;2705;41.410;2.160;2022-10-16T11:41:03;25.50;99.90
5364;DHT22;2705;41.410;2.160;2022-10-16T11:43:39;25.60;99.90
5364;DHT22;2705;41.410;2.160;2022-10-16T11:46:13;25.60;99.90
5364;DHT22;2705;41.410;2.160;2022-10-16T11:48:49;25.50;99.90
5364;DHT22;2705;41.410;2.160;2022-10-16T11:51:26;25.10;99.90
5364;DHT22;2705;41.410;2.160;2022-10-16T11:54:04;25.00;99.90
5364;DHT22;2705;41.410;2.160;2022-10-16T11:56:38;24.80;99.90
5364;DHT22;2705;41.410;2.160;2022-10-16T11:59:18;25.10;99.90
5364;DHT22;2705;41.410;2.160;2022-10-16T12:01:52;25.30;99.90
5364;DHT22;2705;41.410;2.160;2022-10-16T12:04:28;25.40;99.90
5364;DHT22;2705;41.410;2.160;2022-10-16T12:07:04;25.30;99.90
5364;DHT22;2705;41.410;2.160;2022-10-16T12:09:38;25.40;99.90
5364;DHT22;2705;41.410;2.160;2022-10-16T12:12:24;25.50;99.90
5364;DHT22;2705;41.410;2.160;2022-10-16T12:15:18;25.60;99.90
5364;DHT22;2705;41.410;2.160;2022-10-16T12:18:19;25.50;99.90
5364;DHT22;2705;41.410;2.160;2022-10-16T12:20:55;25.60;99.90
5364;DHT22;2705;41.410;2.160;2022-10-16T12:23:33;25.80;99.90
5364;DHT22;2705;41.410;2.160;2022-10-16T12:26:06;26.00;99.90
5364;DHT22;2705;41.410;2.160;2022-10-16T12:28:36;26.10;99.90
5364;DHT22;2705;41.410;2.160;2022-10-16T12:31:10;26.10;99.90
5364;DHT22;2705;41.410;2.160;2022-10-16T12:33:51;26.00;99.90
5364;DHT22;2705;41.410;2.160;2022-10-16T12:36:28;26.00;99.90
5364;DHT22;2705;41.410;2.160;2022-10-16T12:38:59;26.20;99.90
5364;DHT22;2705;41.410;2.160;2022-10-16T12:41:32;26.00;99.90
5364;DHT22;2705;41.410;2.160;2022-10-16T12:44:03;25.90;99.90
5364;DHT22;2705;41.410;2.160;2022-10-16T12:46:38;25.80;99.90
5364;DHT22;2705;41.410;2.160;2022-10-16T12:49:22;26.00;99.90
5364;DHT22;2705;41.410;2.160;2022-10-16T12:51:52;26.20;99.90
5364;DHT22;2705;41.410;2.160;2022-10-16T12:54:28;26.60;99.90
5364;DHT22;2705;41.410;2.160;2022-10-16T12:57:08;26.60;99.90
5364;DHT22;2705;41.410;2.160;2022-10-16T12:59:42;26.60;99.90
5364;DHT22;2705;41.410;2.160;2022-10-16T13:05:25;26.30;99.90
5364;DHT22;2705;41.410;2.160;2022-10-16T13:08:05;26.50;99.90
5364;DHT22;2705;41.410;2.160;2022-10-16T13:10:41;26.60;99.90
5364;DHT22;2705;41.410;2.160;2022-10-16T13:13:34;26.70;99.90
5364;DHT22;2705;41.410;2.160;2022-10-16T13:16:14;26.60;99.90
5364;DHT22;2705;41.410;2.160;2022-10-16T13:18:57;26.40;99.90
5364;DHT22;2705;41.410;2.160;2022-10-16T13:21:38;26.00;99.90
5364;DHT22;2705;41.410;2.160;2022-10-16T13:24:19;25.80;99.90
5364;DHT22;2705;41.410;2.160;2022-10-16T13:26:54;26.00;99.90
5364;DHT22;2705;41.410;2.160;2022-10-16T13:29:30;26.10;99.90
5364;DHT22;2705;41.410;2.160;2022-10-16T13:32:01;26.00;99.90
5364;DHT22;2705;41.410;2.160;2022-10-16T13:34:45;25.70;99.90
5364;DHT22;2705;41.410;2.160;2022-10-16T13:37:19;25.80;99.90
5364;DHT22;2705;41.410;2.160;2022-10-16T13:39:49;25.80;99.90
5364;DHT22;2705;41.410;2.160;2022-10-16T13:42:24;26.00;99.90
5364;DHT22;2705;41.410;2.160;2022-10-16T13:44:56;25.90;99.90
5364;DHT22;2705;41.410;2.160;2022-10-16T13:47:27;25.90;99.90
5364;DHT22;2705;41.410;2.160;2022-10-16T13:50:04;25.80;99.90
5364;DHT22;2705;41.410;2.160;2022-10-16T13:52:36;25.90;99.90
5364;DHT22;2705;41.410;2.160;2022-10-16T13:55:11;26.00;99.90
5364;DHT22;2705;41.410;2.160;2022-10-16T13:57:41;25.80;99.90
5364;DHT22;2705;41.410;2.160;2022-10-16T14:00:23;25.60;99.90
5364;DHT22;2705;41.410;2.160;2022-10-16T14:02:57;25.60;99.90
5364;DHT22;2705;41.410;2.160;2022-10-16T14:05:29;25.40;99.90
5364;DHT22;2705;41.410;2.160;2022-10-16T14:08:00;25.40;99.90
5364;DHT22;2705;41.410;2.160;2022-10-16T14:10:31;25.40;99.90
5364;DHT22;2705;41.410;2.160;2022-10-16T14:13:05;25.50;99.90
5364;DHT22;2705;41.410;2.160;2022-10-16T14:15:36;25.50;99.90
5364;DHT22;2705;41.410;2.160;2022-10-16T14:18:06;25.40;99.90
5364;DHT22;2705;41.410;2.160;2022-10-16T14:20:37;25.40;99.90
5364;DHT22;2705;41.410;2.160;2022-10-16T14:23:21;25.40;99.90
5364;DHT22;2705;41.410;2.160;2022-10-16T14:25:51;25.60;99.90
5364;DHT22;2705;41.410;2.160;2022-10-16T14:28:22;25.70;99.90
5364;DHT22;2705;41.410;2.160;2022-10-16T14:30:55;25.80;99.90
5364;DHT22;2705;41.410;2.160;2022-10-16T14:33:32;25.90;99.90
5364;DHT22;2705;41.410;2.160;2022-10-16T14:36:06;25.90;99.90
5364;DHT22;2705;41.410;2.160;2022-10-16T14:38:48;25.90;99.90
5364;DHT22;2705;41.410;2.160;2022-10-16T14:41:20;25.90;99.90
5364;DHT22;2705;41.410;2.160;2022-10-16T14:43:53;25.80;99.90
5364;DHT22;2705;41.410;2.160;2022-10-16T14:46:30;25.80;99.90
5364;DHT22;2705;41.410;2.160;2022-10-16T14:49:04;25.50;99.90
5364;DHT22;2705;41.410;2.160;2022-10-16T14:51:50;25.70;99.90
5364;DHT22;2705;41.410;2.160;2022-10-16T14:54:20;26.00;99.90
5364;DHT22;2705;41.410;2.160;2022-10-16T14:56:51;26.20;99.90
5364;DHT22;2705;41.410;2.160;2022-10-16T14:59:27;26.50;99.90
5364;DHT22;2705;41.410;2.160;2022-10-16T15:01:57;26.90;99.90
5364;DHT22;2705;41.410;2.160;2022-10-16T15:04:28;26.80;99.90
5364;DHT22;2705;41.410;2.160;2022-10-16T15:06:59;26.70;99.90
5364;DHT22;2705;41.410;2.160;2022-10-16T15:09:28;26.90;99.90
5364;DHT22;2705;41.410;2.160;2022-10-16T15:11:57;26.70;99.90
5364;DHT22;2705;41.410;2.160;2022-10-16T15:14:27;26.90;99.90
5364;DHT22;2705;41.410;2.160;2022-10-16T15:16:57;26.90;99.90
5364;DHT22;2705;41.410;2.160;2022-10-16T15:19:26;26.70;99.90
5364;DHT22;2705;41.410;2.160;2022-10-16T15:21:56;26.40;99.90
5364;DHT22;2705;41.410;2.160;2022-10-16T15:24:27;26.60;99.90
5364;DHT22;2705;41.410;2.160;2022-10-16T15:26:57;26.40;99.90
5364;DHT22;2705;41.410;2.160;2022-10-16T15:29:26;26.40;99.90
5364;DHT22;2705;41.410;2.160;2022-10-16T15:31:56;26.40;99.90
5364;DHT22;2705;41.410;2.160;2022-10-16T15:34:27;26.20;99.90
5364;DHT22;2705;41.410;2.160;2022-10-16T15:36:56;25.90;99.90
5364;DHT22;2705;41.410;2.160;2022-10-16T15:39:28;25.50;99.90
5364;DHT22;2705;41.410;2.160;2022-10-16T15:42:05;25.30;99.90
5364;DHT22;2705;41.410;2.160;2022-10-16T15:44:34;25.20;99.90
5364;DHT22;2705;41.410;2.160;2022-10-16T15:47:03;24.90;99.90
5364;DHT22;2705;41.410;2.160;2022-10-16T15:49:33;24.90;99.90
5364;DHT22;2705;41.410;2.160;2022-10-16T15:52:03;24.70;99.90
5364;DHT22;2705;41.410;2.160;2022-10-16T15:54:35;24.60;99.90
5364;DHT22;2705;41.410;2.160;2022-10-16T15:57:04;24.60;99.90
5364;DHT22;2705;41.410;2.160;2022-10-16T15:59:33;24.60;99.90
5364;DHT22;2705;41.410;2.160;2022-10-16T16:02:02;24.40;99.90
5364;DHT22;2705;41.410;2.160;2022-10-16T16:04:32;24.40;99.90
5364;DHT22;2705;41.410;2.160;2022-10-16T16:07:16;24.40;99.90
5364;DHT22;2705;41.410;2.160;2022-10-16T16:09:47;24.30;99.90
5364;DHT22;2705;41.410;2.160;2022-10-16T16:12:16;24.30;99.90
5364;DHT22;2705;41.410;2.160;2022-10-16T16:14:45;24.30;99.90
5364;DHT22;2705;41.410;2.160;2022-10-16T16:17:18;24.20;99.90
5364;DHT22;2705;41.410;2.160;2022-10-16T16:19:48;24.20;99.90
5364;DHT22;2705;41.410;2.160;2022-10-16T16:22:17;24.10;99.90
5364;DHT22;2705;41.410;2.160;2022-10-16T16:24:52;24.00;99.90
5364;DHT22;2705;41.410;2.160;2022-10-16T16:27:22;24.00;99.90
5364;DHT22;2705;41.410;2.160;2022-10-16T16:29:53;24.00;99.90
5364;DHT22;2705;41.410;2.160;2022-10-16T16:32:22;23.90;99.90
5364;DHT22;2705;41.410;2.160;2022-10-16T16:34:52;24.00;99.90
5364;DHT22;2705;41.410;2.160;2022-10-16T16:37:21;24.10;99.90
5364;DHT22;2705;41.410;2.160;2022-10-16T16:39:52;24.00;99.90
5364;DHT22;2705;41.410;2.160;2022-10-16T16:42:25;23.90;99.90
5364;DHT22;2705;41.410;2.160;2022-10-16T16:44:55;23.80;99.90
5364;DHT22;2705;41.410;2.160;2022-10-16T16:47:25;23.80;99.90